Time;durP1;ratioP1;P1;durP2;ratioP2;P2;SDS_P1;SDS_P2;PMS_P1;PMS_P2;Temp;Humidity;BMP_temperature;BMP_pressure;BME280_temperature;BME280_humidity;BME280_pressure;Samples;Min_cycle;Max_cycle;Signal;HPM_P1;HPM_P2
2023/01/28 00:01:16;;;;;;;10.95;8.25;;;;;;;2.76;74.56;102814.78;5059318;28;20400;-68
2023/01/28 00:03:43;;;;;;;11.23;8.65;;;;;;;2.73;75.02;102810.34;5062651;28;20048;-69
2023/01/28 00:06:14;;;;;;;10.85;8.27;;;;;;;2.75;75.08;102815.59;5046338;28;20052;-69
2023/01/28 00:08:41;;;;;;;10.20;8.10;;;;;;;2.75;75.07;102813.00;5041613;28;20095;-68
2023/01/28 00:11:12;;;;;;;10.98;9.00;;;;;;;2.74;75.21;102814.72;5044775;28;20128;-68
2023/01/28 00:13:39;;;;;;;11.93;9.10;;;;;;;2.79;74.93;102809.69;5046331;28;20033;-68
2023/01/28 00:16:08;;;;;;;14.23;10.00;;;;;;;2.77;75.15;102813.94;5045407;28;20761;-69
2023/01/28 00:18:36;;;;;;;11.57;8.95;;;;;;;2.75;75.11;102810.38;5044359;28;20428;-69
2023/01/28 00:21:11;;;;;;;12.20;9.05;;;;;;;2.74;75.25;102811.25;5045973;28;20048;-69
2023/01/28 00:23:42;;;;;;;13.98;9.45;;;;;;;2.72;75.62;102816.41;5061029;28;20049;-69
2023/01/28 00:26:13;;;;;;;14.23;10.55;;;;;;;2.73;75.55;102825.09;5047267;28;20087;-69
2023/01/28 00:28:43;;;;;;;12.95;9.75;;;;;;;2.77;74.98;102820.06;5044559;28;20048;-68
2023/01/28 00:31:24;;;;;;;13.05;9.55;;;;;;;2.74;75.02;102814.72;5041773;28;20030;-69
2023/01/28 00:33:54;;;;;;;14.27;10.18;;;;;;;2.76;74.53;102815.69;5041776;28;20488;-69
2023/01/28 00:36:24;;;;;;;13.40;9.27;;;;;;;2.73;74.68;102822.50;5046171;28;20041;-69
2023/01/28 00:38:55;;;;;;;13.63;9.60;;;;;;;2.72;74.39;102821.59;5044042;28;20068;-69
2023/01/28 00:41:26;;;;;;;14.48;9.98;;;;;;;2.68;74.96;102822.34;5026865;28;20041;-69
2023/01/28 00:43:54;;;;;;;12.32;9.13;;;;;;;2.67;74.95;102823.19;5040219;28;20045;-69
2023/01/28 00:46:22;;;;;;;12.63;9.23;;;;;;;2.72;74.43;102831.16;5043141;28;20148;-69
2023/01/28 00:48:49;;;;;;;12.80;9.55;;;;;;;2.68;74.49;102834.47;5043456;28;20045;-69
2023/01/28 00:51:19;;;;;;;12.48;9.50;;;;;;;2.68;74.34;102844.88;5040832;28;20514;-69
2023/01/28 00:53:48;;;;;;;14.38;9.93;;;;;;;2.66;74.55;102849.16;5040681;28;20045;-69
2023/01/28 00:56:18;;;;;;;13.48;10.18;;;;;;;2.66;74.89;102849.16;5046690;28;20065;-69
2023/01/28 00:58:45;;;;;;;13.60;9.80;;;;;;;2.67;74.54;102843.13;5042797;28;20037;-69
2023/01/28 01:01:18;;;;;;;12.25;8.70;;;;;;;2.70;74.24;102844.09;5037714;28;20143;-69
2023/01/28 01:03:46;;;;;;;13.20;9.75;;;;;;;2.68;73.76;102851.00;5060996;28;20181;-69
2023/01/28 01:06:15;;;;;;;13.60;9.73;;;;;;;2.64;72.60;102843.91;5040200;28;20053;-69
2023/01/28 01:08:49;;;;;;;12.40;9.55;;;;;;;2.55;73.07;102841.84;5061449;28;20049;-70
2023/01/28 01:11:18;;;;;;;13.90;9.93;;;;;;;2.52;73.11;102831.34;5061760;28;20041;-70
2023/01/28 01:13:54;;;;;;;12.82;9.55;;;;;;;2.47;73.36;102827.69;5045438;28;20073;-70
2023/01/28 01:16:27;;;;;;;13.13;9.18;;;;;;;2.46;73.91;102829.41;5060832;28;20048;-69
2023/01/28 01:18:55;;;;;;;13.02;9.38;;;;;;;2.45;74.36;102829.34;5045375;28;20045;-69
2023/01/28 01:21:27;;;;;;;11.93;8.75;;;;;;;2.47;74.55;102835.50;5040692;28;20038;-69
2023/01/28 01:23:54;;;;;;;14.10;9.88;;;;;;;2.48;74.63;102830.34;5036119;28;20030;-69
2023/01/28 01:26:23;;;;;;;14.15;9.73;;;;;;;2.50;74.03;102835.59;5045145;28;20045;-69
2023/01/28 01:28:51;;;;;;;13.50;9.80;;;;;;;2.51;73.92;102823.47;5045755;28;20033;-69
2023/01/28 01:31:21;;;;;;;13.85;9.82;;;;;;;2.51;73.87;102826.97;5044731;28;20152;-70
2023/01/28 01:33:50;;;;;;;14.07;9.60;;;;;;;2.49;74.09;102832.09;5052635;28;20037;-69
2023/01/28 01:36:19;;;;;;;14.10;10.10;;;;;;;2.45;74.45;102830.25;5063412;28;20133;-70
2023/01/28 01:38:46;;;;;;;14.40;10.15;;;;;;;2.45;74.60;102835.44;5044696;28;20133;-70
2023/01/28 01:41:29;;;;;;;14.15;10.25;;;;;;;2.45;74.59;102834.53;5046315;28;20135;-69
2023/01/28 01:44:03;;;;;;;14.52;10.05;;;;;;;2.48;74.50;102832.06;5041538;28;20038;-70
2023/01/28 01:46:56;;;;;;;14.63;10.63;;;;;;;2.46;74.24;102841.53;5038594;28;20665;-69
2023/01/28 01:49:27;;;;;;;15.93;10.60;;;;;;;2.47;74.19;102835.50;5041917;28;20057;-68
2023/01/28 01:52:13;;;;;;;15.15;10.90;;;;;;;2.46;73.83;102845.03;5044535;28;20501;-69
2023/01/28 01:54:45;;;;;;;15.55;10.65;;;;;;;2.46;73.88;102841.53;5041843;28;20096;-69
2023/01/28 01:57:22;;;;;;;15.20;10.63;;;;;;;2.44;73.89;102838.88;5031896;28;20034;-68
2023/01/28 01:59:49;;;;;;;15.38;10.77;;;;;;;2.44;74.05;102838.00;5041772;28;20565;-68
2023/01/28 02:02:17;;;;;;;14.65;10.38;;;;;;;2.41;74.32;102835.28;5043996;28;20042;-68
2023/01/28 02:04:44;;;;;;;14.13;9.93;;;;;;;2.42;74.41;102834.47;5047992;28;20136;-69
2023/01/28 02:07:18;;;;;;;15.32;10.85;;;;;;;2.43;74.21;102838.84;5045270;28;20087;-68
2023/01/28 02:09:45;;;;;;;16.50;10.50;;;;;;;2.40;74.56;102836.13;5039746;28;20501;-68
2023/01/28 02:12:21;;;;;;;14.73;10.02;;;;;;;2.40;74.61;102841.31;5047779;28;20049;-69
2023/01/28 02:15:01;;;;;;;14.85;10.48;;;;;;;2.40;74.67;102842.19;5029115;28;20057;-68
2023/01/28 02:17:29;;;;;;;14.90;10.80;;;;;;;2.40;74.87;102844.78;5049447;28;20042;-69
2023/01/28 02:20:01;;;;;;;14.88;10.60;;;;;;;2.41;74.40;102851.78;5047358;28;20072;-68
2023/01/28 02:23:05;;;;;;;13.88;10.48;;;;;;;2.39;74.68;102852.56;5044803;28;20504;-68
2023/01/28 02:26:07;;;;;;;15.43;10.60;;;;;;;2.36;75.09;102845.53;5046962;28;20193;-68
2023/01/28 02:28:48;;;;;;;15.95;11.13;;;;;;;2.35;75.61;102841.16;5048308;28;21077;-69
2023/01/28 02:31:50;;;;;;;15.20;10.98;;;;;;;2.36;75.41;102840.34;5062372;28;20037;-68
2023/01/28 02:34:31;;;;;;;14.65;10.75;;;;;;;2.38;75.56;102840.38;5060573;28;20525;-70
2023/01/28 02:37:20;;;;;;;15.07;11.18;;;;;;;2.37;75.31;102838.59;5046524;28;20033;-70
2023/01/28 02:39:54;;;;;;;16.60;11.60;;;;;;;2.34;75.44;102839.38;5062810;28;20095;-70
2023/01/28 02:42:29;;;;;;;14.02;10.55;;;;;;;2.35;75.37;102840.25;5049515;28;20100;-69
2023/01/28 02:44:57;;;;;;;14.65;11.40;;;;;;;2.35;75.38;102837.66;5043633;28;20042;-70
2023/01/28 02:50:16;;;;;;;16.25;11.27;;;;;;;2.31;75.46;102840.16;5037313;28;20057;-71
2023/01/28 02:55:58;;;;;;;14.70;11.13;;;;;;;2.31;75.95;102839.25;5045941;28;20045;-70
2023/01/28 02:58:43;;;;;;;14.70;10.70;;;;;;;2.32;75.72;102843.66;5047540;28;20058;-70
2023/01/28 03:01:36;;;;;;;;;;;;;;;2.33;75.26;102840.22;5037945;28;20054;-70
2023/01/28 03:04:12;;;;;;;14.57;11.40;;;;;;;2.27;75.47;102843.47;5063512;28;19995;-70
2023/01/28 03:06:48;;;;;;;14.07;10.40;;;;;;;2.25;75.63;102842.53;5048153;28;20043;-70
2023/01/28 03:09:23;;;;;;;16.10;11.10;;;;;;;2.21;75.89;102848.47;5063392;28;20068;-69
2023/01/28 03:38:17;;;;;;;12.00;9.07;;;;;;;2.07;75.18;102847.06;5063775;28;20129;-69
2023/01/28 03:41:01;;;;;;;13.27;9.50;;;;;;;2.04;75.14;102850.44;5061745;28;20041;-68
2023/01/28 03:43:30;;;;;;;11.07;8.93;;;;;;;2.03;74.77;102850.41;5043945;28;20209;-69
2023/01/28 03:45:58;;;;;;;10.98;9.00;;;;;;;2.01;74.77;102855.53;5042431;28;20136;-69
2023/01/28 03:48:28;;;;;;;11.93;9.45;;;;;;;1.99;74.65;102855.47;5046843;28;20630;-69
2023/01/28 03:50:59;;;;;;;11.55;9.23;;;;;;;1.99;74.70;102851.97;5042786;28;20765;-69
2023/01/28 03:53:28;;;;;;;11.88;9.45;;;;;;;1.97;74.84;102859.72;5060280;28;20041;-68
2023/01/28 03:55:56;;;;;;;11.57;8.98;;;;;;;1.96;74.46;102851.88;5042892;28;20041;-68
2023/01/28 04:01:27;;;;;;;10.82;8.98;;;;;;;1.94;73.56;102857.00;5041128;28;20133;-68
2023/01/28 04:03:55;;;;;;;11.90;8.35;;;;;;;1.94;73.47;102858.75;5040380;28;20061;-69
2023/01/28 04:06:27;;;;;;;11.23;8.85;;;;;;;1.90;73.77;102864.63;5053717;28;20054;-68
2023/01/28 04:09:04;;;;;;;11.38;9.20;;;;;;;1.89;73.75;102862.88;5044333;28;20041;-68
2023/01/28 04:11:47;;;;;;;10.68;8.23;;;;;;;1.84;73.92;102868.78;5045367;28;20672;-68
2023/01/28 04:14:20;;;;;;;9.77;8.07;;;;;;;1.84;73.56;102875.69;5043704;28;20457;-68
2023/01/28 04:16:54;;;;;;;10.65;8.02;;;;;;;1.84;73.82;102883.50;5058772;28;20049;-68
2023/01/28 04:19:24;;;;;;;10.65;7.90;;;;;;;1.85;73.21;102882.66;5044654;28;20038;-69
2023/01/28 04:21:54;;;;;;;9.20;7.25;;;;;;;1.85;72.59;102883.56;5048194;28;20038;-68
2023/01/28 04:24:22;;;;;;;8.27;6.72;;;;;;;1.82;72.39;102877.38;5060586;28;20100;-69
2023/01/28 04:26:50;;;;;;;8.32;6.72;;;;;;;1.86;71.39;102874.94;5057593;28;20041;-69
2023/01/28 04:29:17;;;;;;;8.50;7.03;;;;;;;1.88;70.84;102880.19;5042124;28;20111;-69
2023/01/28 04:31:45;;;;;;;8.27;6.93;;;;;;;1.90;70.07;102881.16;5043588;28;20045;-69
2023/01/28 04:34:20;;;;;;;8.52;7.20;;;;;;;1.88;69.34;102876.72;5045579;28;20542;-69
2023/01/28 04:37:03;;;;;;;9.48;7.57;;;;;;;1.85;69.19;102873.16;5043986;28;20046;-69
2023/01/28 04:39:43;;;;;;;8.55;6.85;;;;;;;1.84;69.10;102871.41;5044000;28;20033;-69
2023/01/28 04:42:19;;;;;;;8.93;7.50;;;;;;;1.82;68.93;102872.16;5062406;28;20088;-70
2023/01/28 04:45:23;;;;;;;8.32;7.07;;;;;;;1.76;69.56;102875.41;5000969;28;20042;-71
2023/01/28 04:47:58;;;;;;;9.85;7.72;;;;;;;1.77;69.41;102877.19;5037880;28;20588;-70
2023/01/28 04:50:37;;;;;;;9.98;8.00;;;;;;;1.74;69.71;102868.34;5045797;28;20037;-69
2023/01/28 04:53:12;;;;;;;9.13;7.70;;;;;;;1.82;68.63;102872.16;5058805;28;20039;-69
2023/01/28 04:55:51;;;;;;;8.68;7.18;;;;;;;1.83;68.43;102879.16;5044195;28;20034;-70
2023/01/28 04:58:19;;;;;;;10.13;7.53;;;;;;;1.80;69.15;102881.63;5043246;28;20049;-70
2023/01/28 05:00:59;;;;;;;8.10;6.80;;;;;;;1.78;69.61;102881.53;5053639;28;21179;-68
2023/01/28 05:03:26;;;;;;;11.05;7.05;;;;;;;1.79;69.69;102880.72;5061908;28;20084;-68
2023/01/28 05:05:54;;;;;;;8.38;6.93;;;;;;;1.80;69.23;102879.91;5060899;28;20030;-69
2023/01/28 05:08:31;;;;;;;8.75;7.18;;;;;;;1.79;69.35;102882.44;5041006;28;20057;-69
2023/01/28 05:10:58;;;;;;;7.50;6.38;;;;;;;1.82;68.38;102882.56;5044662;28;20034;-70
2023/01/28 05:13:26;;;;;;;6.68;5.93;;;;;;;1.82;67.80;102880.84;5045762;28;20117;-69
2023/01/28 05:15:53;;;;;;;7.55;6.35;;;;;;;1.75;68.25;102877.94;5060311;28;20827;-69
2023/01/28 05:18:20;;;;;;;7.00;6.30;;;;;;;1.71;68.81;102882.13;5061766;28;20041;-70
2023/01/28 05:21:00;;;;;;;7.53;6.65;;;;;;;1.76;68.41;102883.22;5055990;28;20116;-69
2023/01/28 05:23:28;;;;;;;9.52;6.20;;;;;;;1.79;68.24;102883.31;5044981;28;20127;-69
2023/01/28 05:25:58;;;;;;;7.68;5.85;;;;;;;1.74;68.50;102876.16;5036862;28;20037;-69
2023/01/28 05:28:25;;;;;;;6.82;5.85;;;;;;;1.67;68.87;102875.06;5061218;28;20044;-69
2023/01/28 05:30:52;;;;;;;7.32;6.35;;;;;;;1.67;68.86;102883.75;5058537;28;20112;-70
2023/01/28 05:33:19;;;;;;;7.85;6.07;;;;;;;1.65;68.82;102874.97;5041393;28;20569;-70
2023/01/28 05:35:48;;;;;;;9.05;6.50;;;;;;;1.67;68.82;102877.66;5042407;28;20130;-70
2023/01/28 05:38:19;;;;;;;7.90;6.22;;;;;;;1.71;68.19;102866.53;5043234;28;20189;-70
2023/01/28 05:40:47;;;;;;;8.68;6.35;;;;;;;1.65;68.51;102867.19;5061482;28;20038;-70
2023/01/28 05:43:15;;;;;;;6.82;6.13;;;;;;;1.59;68.90;102868.66;5042796;28;20044;-69
2023/01/28 05:45:46;;;;;;;8.60;6.95;;;;;;;1.63;69.09;102876.63;5041551;28;20573;-68
2023/01/28 05:48:21;;;;;;;7.82;6.85;;;;;;;1.58;69.40;102879.91;5053974;28;20064;-68
2023/01/28 05:51:04;;;;;;;8.13;6.72;;;;;;;1.59;69.24;102881.66;5060953;28;20045;-68
2023/01/28 05:53:37;;;;;;;7.78;6.40;;;;;;;1.53;69.35;102891.00;5062206;28;20129;-69
2023/01/28 05:56:06;;;;;;;7.60;6.47;;;;;;;1.52;70.08;102893.53;5052766;28;20049;-69
2023/01/28 05:58:34;;;;;;;8.07;6.07;;;;;;;1.51;70.25;102892.63;5043818;28;20072;-68
2023/01/28 06:01:02;;;;;;;7.85;6.72;;;;;;;1.54;69.97;102895.38;5059506;28;20503;-69
2023/01/28 06:03:38;;;;;;;7.80;6.53;;;;;;;1.53;69.81;102893.59;5059773;28;20034;-67
2023/01/28 06:06:05;;;;;;;8.20;6.60;;;;;;;1.49;70.08;102898.59;5037494;28;20042;-69
2023/01/28 06:08:32;;;;;;;8.85;6.75;;;;;;;1.46;70.12;102899.38;5037117;28;20045;-69
2023/01/28 06:10:59;;;;;;;8.10;6.88;;;;;;;1.44;69.81;102897.53;5039969;28;20041;-69
2023/01/28 06:13:34;;;;;;;7.22;6.35;;;;;;;1.46;69.58;102901.06;5038566;28;20045;-70
2023/01/28 06:16:23;;;;;;;7.60;6.50;;;;;;;1.47;68.91;102895.06;5038196;28;20037;-69
2023/01/28 06:19:11;;;;;;;8.25;6.85;;;;;;;1.37;68.65;102899.00;5056557;28;20091;-69
2023/01/28 06:21:42;;;;;;;9.00;7.22;;;;;;;1.33;68.66;102905.75;5052188;28;20750;-69
2023/01/28 06:24:11;;;;;;;8.63;7.03;;;;;;;1.34;68.46;102898.88;5052068;28;20061;-69
2023/01/28 06:26:38;;;;;;;8.27;7.18;;;;;;;1.30;68.62;102897.88;5042032;28;20038;-70
2023/01/28 06:29:05;;;;;;;8.38;6.95;;;;;;;1.26;68.86;102902.88;5051057;28;20104;-69
2023/01/28 06:31:32;;;;;;;9.82;7.97;;;;;;;1.22;68.65;102904.47;5036360;28;20409;-69
2023/01/28 06:34:00;;;;;;;9.70;7.47;;;;;;;1.26;68.67;102910.66;5041139;28;20761;-69
2023/01/28 06:36:26;;;;;;;9.82;8.23;;;;;;;1.20;68.84;102901.78;5044530;28;20033;-69
2023/01/28 06:38:56;;;;;;;9.50;7.80;;;;;;;1.24;68.99;102905.38;5040427;28;20092;-68
2023/01/28 06:41:23;;;;;;;8.88;7.15;;;;;;;1.24;69.02;102918.38;5037788;28;20227;-69
2023/01/28 06:43:50;;;;;;;10.05;7.93;;;;;;;1.17;69.57;102906.84;5036858;28;20034;-70
2023/01/28 06:46:18;;;;;;;9.68;7.28;;;;;;;1.15;69.99;102905.91;5053894;28;20521;-69
2023/01/28 06:48:45;;;;;;;11.00;8.15;;;;;;;1.17;69.97;102908.56;5038789;28;20047;-68
2023/01/28 06:51:12;;;;;;;12.55;9.30;;;;;;;1.18;69.78;102906.03;5045158;28;20042;-70
2023/01/28 06:53:39;;;;;;;11.00;8.25;;;;;;;1.18;69.82;102910.34;5041594;28;20052;-66
2023/01/28 06:56:12;;;;;;;9.95;8.05;;;;;;;1.20;69.67;102911.31;5040362;28;20040;-65
2023/01/28 06:58:40;;;;;;;11.60;8.88;;;;;;;1.15;70.22;102913.72;5044499;28;20037;-68
2023/01/28 07:01:07;;;;;;;10.48;8.43;;;;;;;1.14;70.34;102909.34;5045483;28;20033;-67
2023/01/28 07:03:38;;;;;;;11.13;8.35;;;;;;;1.13;70.79;102904.97;5042860;28;20549;-67
2023/01/28 07:06:06;;;;;;;12.73;9.82;;;;;;;1.15;71.14;102910.22;5043215;28;20038;-67
2023/01/28 07:08:36;;;;;;;11.68;8.77;;;;;;;1.17;71.23;102912.03;5053863;28;20136;-67
2023/01/28 07:11:04;;;;;;;12.88;8.60;;;;;;;1.20;71.22;102914.78;5041481;28;20357;-69
2023/01/28 07:13:31;;;;;;;13.23;9.00;;;;;;;1.20;70.94;102919.97;5056198;28;20105;-69
2023/01/28 07:15:59;;;;;;;11.65;8.80;;;;;;;1.20;71.16;102921.69;5041861;28;20161;-68
2023/01/28 07:18:29;;;;;;;11.68;9.07;;;;;;;1.19;71.07;102918.19;5040350;28;20046;-68
2023/01/28 07:20:56;;;;;;;13.85;8.88;;;;;;;1.21;71.15;102926.06;5062286;28;20092;-68
2023/01/28 07:23:23;;;;;;;13.52;9.70;;;;;;;1.19;71.07;102920.78;5043754;28;20132;-69
2023/01/28 07:25:50;;;;;;;13.05;9.82;;;;;;;1.24;70.58;102933.97;5058970;28;20611;-66
2023/01/28 07:28:20;;;;;;;14.00;7.75;;;;;;;1.21;71.45;102939.94;5059509;28;20166;-74
2023/01/28 07:30:50;;;;;;;13.00;9.05;;;;;;;1.46;73.89;102948.78;5040310;28;20050;-71
2023/01/28 07:33:20;;;;;;;12.73;10.10;;;;;;;1.67;73.14;102946.16;5043026;28;20561;-70
2023/01/28 07:35:47;;;;;;;13.32;10.23;;;;;;;1.69;71.39;102948.78;5038680;28;20048;-69
2023/01/28 07:38:15;;;;;;;15.95;10.13;;;;;;;1.62;70.58;102952.88;5041850;28;20045;-69
2023/01/28 07:40:42;;;;;;;13.43;9.95;;;;;;;1.51;70.82;102955.03;5033416;28;20038;-69
2023/01/28 07:43:10;;;;;;;15.02;9.77;;;;;;;1.54;72.62;102943.88;5045670;28;20041;-73
2023/01/28 07:45:41;;;;;;;13.23;9.57;;;;;;;1.73;72.37;102953.31;5041580;28;20033;-72
2023/01/28 07:48:12;;;;;;;14.15;10.25;;;;;;;1.83;71.79;102947.66;5052373;28;21002;-70
2023/01/28 07:50:40;;;;;;;13.25;9.88;;;;;;;1.84;70.99;102949.44;5049135;28;20122;-69
2023/01/28 07:53:10;;;;;;;12.90;10.13;;;;;;;1.75;70.47;102949.06;5046848;28;20092;-70
2023/01/28 07:55:39;;;;;;;14.30;10.30;;;;;;;1.72;70.34;102955.84;5047124;28;20041;-69
2023/01/28 07:58:09;;;;;;;13.73;10.52;;;;;;;1.67;70.16;102955.69;5062813;28;20796;-69
2023/01/28 08:00:38;;;;;;;14.00;10.43;;;;;;;1.63;71.02;102964.16;5068659;28;20436;-69
2023/01/28 08:03:13;;;;;;;14.07;10.25;;;;;;;1.67;71.21;102969.56;5047723;28;20041;-70
2023/01/28 08:05:50;;;;;;;14.60;10.93;;;;;;;1.73;71.06;102976.72;5046409;28;20038;-70
2023/01/28 08:08:18;;;;;;;17.83;11.50;;;;;;;1.67;70.81;102972.16;5066077;28;20033;-70
2023/01/28 08:10:49;;;;;;;15.18;11.45;;;;;;;1.63;70.83;102975.44;5053520;28;20084;-70
2023/01/28 08:13:18;;;;;;;13.57;10.10;;;;;;;1.63;69.98;102969.38;5046674;28;20037;-70
2023/01/28 08:15:45;;;;;;;14.60;11.35;;;;;;;1.53;69.46;102968.09;5047945;28;20045;-70
2023/01/28 08:18:16;;;;;;;14.63;11.23;;;;;;;1.46;69.84;102966.97;5046956;28;20091;-70
2023/01/28 08:20:45;;;;;;;15.05;11.38;;;;;;;1.38;70.60;102984.84;5050620;28;20033;-70
2023/01/28 08:23:16;;;;;;;13.93;10.82;;;;;;;1.42;70.40;103001.44;5044796;28;20037;-70
2023/01/28 08:25:45;;;;;;;16.02;11.52;;;;;;;1.36;70.38;102994.28;5047308;28;20111;-69
2023/01/28 08:28:15;;;;;;;14.50;11.18;;;;;;;1.36;70.32;102998.59;5039398;28;20034;-69
2023/01/28 08:30:43;;;;;;;15.00;10.70;;;;;;;1.38;69.81;103009.94;5047404;28;20049;-69
2023/01/28 08:33:15;;;;;;;14.25;10.82;;;;;;;1.35;69.98;103009.81;5042009;28;20042;-71
2023/01/28 08:35:43;;;;;;;15.93;11.35;;;;;;;1.35;69.97;103007.22;5059127;28;20047;-71
2023/01/28 08:38:16;;;;;;;15.43;11.18;;;;;;;1.37;69.73;103010.78;5055206;28;20048;-68
2023/01/28 08:40:54;;;;;;;15.68;11.93;;;;;;;1.36;69.54;103015.06;5046159;28;20073;-68
2023/01/28 08:43:22;;;;;;;15.15;10.88;;;;;;;1.38;69.17;103018.63;5048821;28;20046;-68
2023/01/28 08:45:50;;;;;;;13.15;10.30;;;;;;;1.35;69.50;103013.28;5044576;28;20517;-68
2023/01/28 08:48:18;;;;;;;13.55;10.00;;;;;;;1.37;68.81;103018.56;5030690;28;20147;-68
2023/01/28 08:50:46;;;;;;;13.70;10.30;;;;;;;1.35;69.19;103015.00;5049006;28;20033;-68
2023/01/28 08:53:18;;;;;;;13.63;9.75;;;;;;;1.37;69.04;103026.38;5043574;28;20163;-68
2023/01/28 08:55:46;;;;;;;14.80;10.75;;;;;;;1.37;69.40;103024.66;5044483;28;20057;-68
2023/01/28 08:58:17;;;;;;;14.20;10.55;;;;;;;1.42;69.03;103031.75;5045533;28;20041;-68
2023/01/28 09:00:45;;;;;;;12.70;10.18;;;;;;;1.42;68.89;103040.44;5035110;28;20056;-68
2023/01/28 09:03:13;;;;;;;13.32;9.75;;;;;;;1.39;69.22;103037.69;5047384;28;20048;-68
2023/01/28 09:05:41;;;;;;;14.55;10.85;;;;;;;1.36;69.77;103035.88;5045441;28;20088;-68
2023/01/28 09:08:14;;;;;;;13.90;10.07;;;;;;;1.44;69.93;103032.69;5049522;28;20041;-68
2023/01/28 09:10:43;;;;;;;12.48;9.60;;;;;;;1.51;69.51;103038.22;5042432;28;20577;-68
2023/01/28 09:13:14;;;;;;;14.63;9.63;;;;;;;1.55;68.98;103047.94;5044017;28;20053;-68
2023/01/28 09:15:42;;;;;;;14.73;10.48;;;;;;;1.63;68.88;103048.25;5044914;28;20042;-67
2023/01/28 09:18:10;;;;;;;13.85;10.27;;;;;;;1.64;69.29;103051.75;5048710;28;20449;-68
2023/01/28 09:20:38;;;;;;;12.55;9.52;;;;;;;1.69;69.60;103048.53;5043100;28;20029;-68
2023/01/28 09:23:08;;;;;;;14.30;10.52;;;;;;;1.77;69.15;103047.94;5044560;28;20323;-68
2023/01/28 09:25:35;;;;;;;13.57;10.52;;;;;;;1.80;68.99;103054.16;5042141;28;20037;-68
2023/01/28 09:28:04;;;;;;;13.73;10.30;;;;;;;1.86;68.14;103054.44;5040983;28;20092;-67
2023/01/28 09:30:33;;;;;;;15.95;11.38;;;;;;;1.82;68.02;103043.84;5028301;28;20056;-67
2023/01/28 09:33:05;;;;;;;13.40;9.93;;;;;;;1.80;68.08;103045.47;5059252;28;20045;-67
2023/01/28 09:35:34;;;;;;;13.32;10.13;;;;;;;1.77;67.98;103043.66;5050688;28;20122;-68
2023/01/28 09:38:02;;;;;;;15.05;10.80;;;;;;;1.76;67.66;103047.06;5060606;28;20045;-67
2023/01/28 09:40:42;;;;;;;13.43;10.38;;;;;;;1.76;67.46;103044.47;5048322;28;20607;-68
2023/01/28 09:43:45;;;;;;;13.32;10.30;;;;;;;1.75;67.62;103047.00;5058406;28;20506;-67
2023/01/28 09:46:17;;;;;;;13.15;10.02;;;;;;;1.74;67.74;103055.63;5040869;28;20061;-67
2023/01/28 09:48:52;;;;;;;13.23;9.57;;;;;;;1.72;67.86;103050.34;5059381;28;20850;-65
2023/01/28 09:51:25;;;;;;;;;;;;;;;1.71;68.29;103058.97;5045098;28;20929;-67
2023/01/28 09:53:58;;;;;;;15.45;10.52;;;;;;;1.79;67.32;103067.97;5046027;28;20316;-67
2023/01/28 09:56:33;;;;;;;12.57;10.27;;;;;;;1.79;67.57;103061.91;5043337;28;20050;-68
2023/01/28 09:59:18;;;;;;;12.77;10.18;;;;;;;1.80;67.09;103074.97;5046574;28;20034;-68
2023/01/28 10:02:20;;;;;;;13.52;10.38;;;;;;;1.80;67.00;103068.91;5042937;28;20072;-67
2023/01/28 10:05:13;;;;;;;14.23;10.43;;;;;;;1.74;67.42;103071.22;5043440;28;20068;-67
2023/01/28 10:08:40;;;;;;;15.32;10.25;;;;;;;1.68;68.19;103064.94;5044738;28;20791;-67
2023/01/28 10:11:26;;;;;;;14.40;10.95;;;;;;;1.72;68.29;103078.09;5045477;28;20052;-68
2023/01/28 10:14:22;;;;;;;13.00;10.52;;;;;;;1.77;67.36;103082.66;5045950;28;20040;-67
2023/01/28 10:17:12;;;;;;;15.10;10.25;;;;;;;1.75;67.62;103083.41;5043565;28;20042;-67
2023/01/28 10:20:06;;;;;;;13.27;10.15;;;;;;;1.75;67.58;103083.41;5040162;28;20080;-67
2023/01/28 10:23:11;;;;;;;13.65;10.75;;;;;;;1.72;67.64;103080.69;5041230;28;20127;-68
2023/01/28 10:25:47;;;;;;;13.45;10.52;;;;;;;1.69;68.12;103092.72;5044816;28;20044;-67
2023/01/28 10:28:28;;;;;;;14.57;11.07;;;;;;;1.73;67.67;103092.88;5045353;28;20044;-68
2023/01/28 10:30:55;;;;;;;13.73;9.98;;;;;;;1.68;67.85;103090.06;5046113;28;20401;-67
2023/01/28 10:33:36;;;;;;;14.50;10.75;;;;;;;1.69;68.31;103078.81;5064443;28;20140;-67
2023/01/28 10:36:05;;;;;;;14.63;11.00;;;;;;;1.74;67.94;103072.13;5046512;28;20629;-68
2023/01/28 10:38:32;;;;;;;15.27;10.98;;;;;;;1.76;67.99;103069.56;5049330;28;20033;-67
2023/01/28 10:41:03;;;;;;;15.23;11.05;;;;;;;1.77;67.99;103079.16;5055306;28;20030;-67
2023/01/28 10:43:36;;;;;;;14.43;11.63;;;;;;;1.76;68.31;103075.69;5034549;28;20041;-67
2023/01/28 10:46:22;;;;;;;14.07;11.15;;;;;;;1.82;67.90;103069.84;5057610;28;20041;-67
2023/01/28 10:49:02;;;;;;;15.27;11.65;;;;;;;1.81;67.94;103076.75;5049383;28;20926;-67
2023/01/28 10:51:34;;;;;;;14.63;11.00;;;;;;;1.81;68.17;103070.69;5056825;28;20508;-67
2023/01/28 10:54:03;;;;;;;14.82;11.02;;;;;;;1.86;68.03;103066.53;5072219;28;20103;-67
2023/01/28 10:56:34;;;;;;;13.75;11.38;;;;;;;1.92;67.76;103063.31;5054086;28;20037;-66
2023/01/28 10:59:27;;;;;;;13.00;10.70;;;;;;;1.90;67.57;103060.66;5059453;28;20041;-67
2023/01/28 11:02:03;;;;;;;14.82;10.82;;;;;;;1.99;67.02;103070.53;5051856;28;20088;-68
2023/01/28 11:04:35;;;;;;;16.20;11.23;;;;;;;1.88;67.67;103069.22;5041585;28;20557;-67
2023/01/28 11:07:18;;;;;;;16.23;11.38;;;;;;;1.84;68.03;103061.28;5063274;28;20421;-67
2023/01/28 11:09:50;;;;;;;14.90;10.82;;;;;;;1.85;68.13;103060.47;5048237;28;20149;-67
2023/01/28 11:12:27;;;;;;;13.75;10.77;;;;;;;1.86;68.58;103061.34;5048626;28;20049;-67
2023/01/28 11:15:03;;;;;;;14.48;11.10;;;;;;;1.93;68.58;103060.78;5061981;28;20072;-67
2023/01/28 11:17:37;;;;;;;12.90;10.55;;;;;;;2.04;67.97;103044.69;5035985;28;20045;-67
2023/01/28 11:20:18;;;;;;;12.52;10.27;;;;;;;2.06;67.45;103032.63;5054998;28;20072;-66
2023/01/28 11:22:47;;;;;;;13.95;11.02;;;;;;;2.10;67.27;103031.94;5052969;28;21199;-66
2023/01/28 11:25:31;;;;;;;11.98;9.45;;;;;;;2.12;67.66;103043.31;5061812;28;20033;-66
2023/01/28 11:28:04;;;;;;;13.27;9.98;;;;;;;2.20;67.10;103034.09;5038382;28;20041;-66
2023/01/28 11:30:36;;;;;;;13.60;10.90;;;;;;;2.22;67.22;103023.72;5041462;28;20543;-65
2023/01/28 11:33:30;;;;;;;13.15;10.70;;;;;;;2.26;67.64;103013.50;5062946;28;20096;-64
2023/01/28 11:36:11;;;;;;;13.02;10.18;;;;;;;2.33;67.84;102997.31;5052418;28;20037;-67
2023/01/28 11:39:21;;;;;;;13.27;10.60;;;;;;;2.46;67.68;103002.97;5051857;28;20041;-69
2023/01/28 11:41:48;;;;;;;13.50;10.60;;;;;;;2.59;67.92;103015.63;5042640;28;20489;-66
2023/01/28 11:44:20;;;;;;;12.30;10.32;;;;;;;2.69;67.08;103010.75;5047006;28;20119;-68
2023/01/28 11:47:01;;;;;;;13.23;10.75;;;;;;;2.76;66.43;103010.16;5052717;28;20463;-68
2023/01/28 11:49:49;;;;;;;12.18;10.27;;;;;;;2.70;66.28;103013.41;5046016;28;20119;-68
2023/01/28 11:53:07;;;;;;;13.55;10.48;;;;;;;2.70;66.82;103003.00;5057186;28;20549;-67
2023/01/28 11:56:08;;;;;;;14.00;11.02;;;;;;;2.80;67.49;102996.41;5044363;28;20048;-67
2023/01/28 11:58:55;;;;;;;14.90;10.65;;;;;;;2.88;67.05;102975.84;5049939;28;20068;-67
2023/01/28 12:01:46;;;;;;;14.70;10.68;;;;;;;2.94;67.62;102955.22;5048876;28;20753;-67
2023/01/28 12:04:41;;;;;;;14.15;9.98;;;;;;;3.02;67.03;102940.72;5047153;28;20112;-67
2023/01/28 12:07:34;;;;;;;12.75;9.70;;;;;;;3.03;66.08;102924.25;5054892;28;20049;-68
2023/01/28 12:10:39;;;;;;;12.88;9.93;;;;;;;3.00;66.05;102921.53;5037515;28;20991;-68
2023/01/28 12:13:46;;;;;;;12.27;9.90;;;;;;;2.97;65.90;102925.75;5049615;28;20062;-68
2023/01/28 12:16:41;;;;;;;12.40;9.65;;;;;;;3.12;66.49;102921.09;5038250;28;20109;-68
2023/01/28 12:19:18;;;;;;;13.45;9.50;;;;;;;3.15;66.89;102920.31;5040437;28;20069;-67
2023/01/28 12:21:54;;;;;;;;;;;;;;;3.14;67.07;102915.94;5046754;28;20522;-68
2023/01/28 12:25:12;;;;;;;12.80;9.68;;;;;;;3.33;66.71;102926.13;5056583;28;19928;-67
2023/01/28 12:27:57;;;;;;;12.68;9.75;;;;;;;3.50;64.45;102941.47;5029398;28;20773;-68
2023/01/28 12:30:58;;;;;;;11.65;9.95;;;;;;;3.38;62.99;102949.75;5041969;28;20041;-67
2023/01/28 12:33:44;;;;;;;13.88;9.70;;;;;;;3.17;63.80;102942.97;5034806;28;20921;-67